sensor_id;sensor_type;location;lat;lon;timestamp;temperature;humidity
25208;DHT22;13153;52.316;21.166;2023-06-26T00:00:13;18.40;99.90
25208;DHT22;13153;52.316;21.166;2023-06-26T00:02:39;18.40;99.90
25208;DHT22;13153;52.316;21.166;2023-06-26T00:05:05;18.40;99.90
25208;DHT22;13153;52.316;21.166;2023-06-26T00:07:32;18.40;99.90
25208;DHT22;13153;52.316;21.166;2023-06-26T00:09:59;18.40;99.90
25208;DHT22;13153;52.316;21.166;2023-06-26T00:12:26;18.30;99.90
25208;DHT22;13153;52.316;21.166;2023-06-26T00:14:52;18.30;99.90
25208;DHT22;13153;52.316;21.166;2023-06-26T00:17:18;18.20;99.90
25208;DHT22;13153;52.316;21.166;2023-06-26T00:19:44;18.20;99.90
25208;DHT22;13153;52.316;21.166;2023-06-26T00:22:10;18.10;99.90
25208;DHT22;13153;52.316;21.166;2023-06-26T00:24:36;18.10;99.90
25208;DHT22;13153;52.316;21.166;2023-06-26T00:27:02;18.10;99.90
25208;DHT22;13153;52.316;21.166;2023-06-26T00:29:28;18.10;99.90
25208;DHT22;13153;52.316;21.166;2023-06-26T00:31:54;18.10;99.90
25208;DHT22;13153;52.316;21.166;2023-06-26T00:34:19;18.00;99.90
25208;DHT22;13153;52.316;21.166;2023-06-26T00:36:45;18.00;99.90
25208;DHT22;13153;52.316;21.166;2023-06-26T00:39:11;18.00;99.90
25208;DHT22;13153;52.316;21.166;2023-06-26T00:41:37;17.90;99.90
25208;DHT22;13153;52.316;21.166;2023-06-26T00:44:06;17.90;99.90
25208;DHT22;13153;52.316;21.166;2023-06-26T00:46:33;17.80;99.90
25208;DHT22;13153;52.316;21.166;2023-06-26T00:49:00;17.70;99.90
25208;DHT22;13153;52.316;21.166;2023-06-26T00:51:29;17.70;99.90
25208;DHT22;13153;52.316;21.166;2023-06-26T00:53:56;17.70;99.90
25208;DHT22;13153;52.316;21.166;2023-06-26T00:56:23;17.70;99.90
25208;DHT22;13153;52.316;21.166;2023-06-26T00:58:49;17.60;99.90
25208;DHT22;13153;52.316;21.166;2023-06-26T01:01:15;17.60;99.90
25208;DHT22;13153;52.316;21.166;2023-06-26T01:03:45;17.70;99.90
25208;DHT22;13153;52.316;21.166;2023-06-26T01:06:18;17.70;99.90
25208;DHT22;13153;52.316;21.166;2023-06-26T01:08:45;17.70;99.90
25208;DHT22;13153;52.316;21.166;2023-06-26T01:11:13;17.60;99.90
25208;DHT22;13153;52.316;21.166;2023-06-26T01:13:42;17.60;99.90
25208;DHT22;13153;52.316;21.166;2023-06-26T01:16:11;17.60;99.90
25208;DHT22;13153;52.316;21.166;2023-06-26T01:18:40;17.50;99.90
25208;DHT22;13153;52.316;21.166;2023-06-26T01:21:09;17.50;99.90
25208;DHT22;13153;52.316;21.166;2023-06-26T01:26:20;17.50;99.90
25208;DHT22;13153;52.316;21.166;2023-06-26T01:28:49;17.60;99.90
25208;DHT22;13153;52.316;21.166;2023-06-26T01:31:17;17.50;99.90
25208;DHT22;13153;52.316;21.166;2023-06-26T01:33:45;17.50;99.90
25208;DHT22;13153;52.316;21.166;2023-06-26T01:36:13;17.50;99.90
25208;DHT22;13153;52.316;21.166;2023-06-26T01:38:38;17.50;99.90
25208;DHT22;13153;52.316;21.166;2023-06-26T01:41:05;17.40;99.90
25208;DHT22;13153;52.316;21.166;2023-06-26T01:43:59;17.40;99.90
25208;DHT22;13153;52.316;21.166;2023-06-26T01:46:48;17.30;99.90
25208;DHT22;13153;52.316;21.166;2023-06-26T01:52:20;17.20;99.90
25208;DHT22;13153;52.316;21.166;2023-06-26T01:55:05;17.10;99.90
25208;DHT22;13153;52.316;21.166;2023-06-26T01:57:36;17.10;99.90
25208;DHT22;13153;52.316;21.166;2023-06-26T02:00:05;17.10;99.90
25208;DHT22;13153;52.316;21.166;2023-06-26T02:02:35;17.00;99.90
25208;DHT22;13153;52.316;21.166;2023-06-26T02:05:02;17.00;99.90
25208;DHT22;13153;52.316;21.166;2023-06-26T02:07:28;16.90;99.90
25208;DHT22;13153;52.316;21.166;2023-06-26T02:09:54;16.90;99.90
25208;DHT22;13153;52.316;21.166;2023-06-26T02:12:19;16.90;99.90
25208;DHT22;13153;52.316;21.166;2023-06-26T02:14:45;16.90;99.90
25208;DHT22;13153;52.316;21.166;2023-06-26T02:17:11;16.90;99.90
25208;DHT22;13153;52.316;21.166;2023-06-26T02:19:37;16.90;99.90
25208;DHT22;13153;52.316;21.166;2023-06-26T02:22:10;16.80;99.90
25208;DHT22;13153;52.316;21.166;2023-06-26T02:24:36;16.80;99.90
25208;DHT22;13153;52.316;21.166;2023-06-26T02:27:02;16.80;99.90
25208;DHT22;13153;52.316;21.166;2023-06-26T02:29:27;16.80;99.90
25208;DHT22;13153;52.316;21.166;2023-06-26T02:31:53;16.80;99.90
25208;DHT22;13153;52.316;21.166;2023-06-26T02:34:19;16.80;99.90
25208;DHT22;13153;52.316;21.166;2023-06-26T02:36:45;16.80;99.90
25208;DHT22;13153;52.316;21.166;2023-06-26T02:39:10;16.90;99.90
25208;DHT22;13153;52.316;21.166;2023-06-26T02:41:36;17.00;99.90
25208;DHT22;13153;52.316;21.166;2023-06-26T02:44:02;17.10;99.90
25208;DHT22;13153;52.316;21.166;2023-06-26T02:46:27;17.20;99.90
25208;DHT22;13153;52.316;21.166;2023-06-26T02:48:53;17.20;99.90
25208;DHT22;13153;52.316;21.166;2023-06-26T02:51:19;17.30;99.90
25208;DHT22;13153;52.316;21.166;2023-06-26T02:53:45;17.40;99.90
25208;DHT22;13153;52.316;21.166;2023-06-26T02:56:10;17.50;99.90
25208;DHT22;13153;52.316;21.166;2023-06-26T02:58:36;17.50;99.90
25208;DHT22;13153;52.316;21.166;2023-06-26T03:01:02;17.70;99.90
25208;DHT22;13153;52.316;21.166;2023-06-26T03:03:28;17.80;99.90
25208;DHT22;13153;52.316;21.166;2023-06-26T03:05:53;17.90;99.90
25208;DHT22;13153;52.316;21.166;2023-06-26T03:08:19;18.10;99.90
25208;DHT22;13153;52.316;21.166;2023-06-26T03:10:45;18.30;99.90
25208;DHT22;13153;52.316;21.166;2023-06-26T03:13:11;18.50;99.90
25208;DHT22;13153;52.316;21.166;2023-06-26T03:15:36;18.70;99.90
25208;DHT22;13153;52.316;21.166;2023-06-26T03:18:02;19.00;99.90
25208;DHT22;13153;52.316;21.166;2023-06-26T03:20:28;19.30;99.90
25208;DHT22;13153;52.316;21.166;2023-06-26T03:22:54;19.50;99.90
25208;DHT22;13153;52.316;21.166;2023-06-26T03:25:19;19.80;99.90
25208;DHT22;13153;52.316;21.166;2023-06-26T03:27:45;20.10;99.90
25208;DHT22;13153;52.316;21.166;2023-06-26T03:30:11;20.30;99.90
25208;DHT22;13153;52.316;21.166;2023-06-26T03:32:37;20.60;99.90
25208;DHT22;13153;52.316;21.166;2023-06-26T03:35:03;20.80;99.90
25208;DHT22;13153;52.316;21.166;2023-06-26T03:37:29;21.10;99.90
25208;DHT22;13153;52.316;21.166;2023-06-26T03:39:55;21.40;99.90
25208;DHT22;13153;52.316;21.166;2023-06-26T03:42:21;21.50;99.90
25208;DHT22;13153;52.316;21.166;2023-06-26T03:44:47;21.80;99.90
25208;DHT22;13153;52.316;21.166;2023-06-26T03:47:13;22.10;99.90
25208;DHT22;13153;52.316;21.166;2023-06-26T03:49:39;22.30;99.90
25208;DHT22;13153;52.316;21.166;2023-06-26T03:52:04;22.50;99.90
25208;DHT22;13153;52.316;21.166;2023-06-26T03:54:31;22.80;99.90
25208;DHT22;13153;52.316;21.166;2023-06-26T03:56:59;23.20;99.90
25208;DHT22;13153;52.316;21.166;2023-06-26T03:59:25;23.40;99.90
25208;DHT22;13153;52.316;21.166;2023-06-26T04:01:50;23.90;99.90
25208;DHT22;13153;52.316;21.166;2023-06-26T04:04:16;24.30;99.90
25208;DHT22;13153;52.316;21.166;2023-06-26T04:06:42;24.80;99.90
25208;DHT22;13153;52.316;21.166;2023-06-26T04:09:08;25.40;99.90
25208;DHT22;13153;52.316;21.166;2023-06-26T04:11:33;26.10;99.90
25208;DHT22;13153;52.316;21.166;2023-06-26T04:13:59;26.90;99.90
25208;DHT22;13153;52.316;21.166;2023-06-26T04:16:25;27.80;99.90
25208;DHT22;13153;52.316;21.166;2023-06-26T04:18:52;28.50;99.90
25208;DHT22;13153;52.316;21.166;2023-06-26T04:21:18;29.30;99.50
25208;DHT22;13153;52.316;21.166;2023-06-26T04:23:45;29.90;97.00
25208;DHT22;13153;52.316;21.166;2023-06-26T04:26:11;30.50;93.50
25208;DHT22;13153;52.316;21.166;2023-06-26T04:28:40;30.90;91.20
25208;DHT22;13153;52.316;21.166;2023-06-26T04:31:06;31.20;89.10
25208;DHT22;13153;52.316;21.166;2023-06-26T04:33:32;31.60;86.80
25208;DHT22;13153;52.316;21.166;2023-06-26T04:35:57;32.00;84.10
25208;DHT22;13153;52.316;21.166;2023-06-26T04:38:23;32.30;82.20
25208;DHT22;13153;52.316;21.166;2023-06-26T04:40:49;32.70;79.70
25208;DHT22;13153;52.316;21.166;2023-06-26T04:43:15;33.10;77.70
25208;DHT22;13153;52.316;21.166;2023-06-26T04:45:41;33.60;75.30
25208;DHT22;13153;52.316;21.166;2023-06-26T04:48:06;33.90;73.30
25208;DHT22;13153;52.316;21.166;2023-06-26T04:50:33;34.40;71.20
25208;DHT22;13153;52.316;21.166;2023-06-26T04:52:59;34.70;69.80
25208;DHT22;13153;52.316;21.166;2023-06-26T04:55:25;35.10;67.80
25208;DHT22;13153;52.316;21.166;2023-06-26T04:57:51;35.40;66.60
25208;DHT22;13153;52.316;21.166;2023-06-26T05:00:18;35.80;64.80
25208;DHT22;13153;52.316;21.166;2023-06-26T05:02:43;36.10;62.80
25208;DHT22;13153;52.316;21.166;2023-06-26T05:05:09;36.40;62.10
25208;DHT22;13153;52.316;21.166;2023-06-26T05:07:36;36.80;61.80
25208;DHT22;13153;52.316;21.166;2023-06-26T05:10:02;36.80;60.40
25208;DHT22;13153;52.316;21.166;2023-06-26T05:12:28;37.00;58.70
25208;DHT22;13153;52.316;21.166;2023-06-26T05:14:54;37.30;58.00
25208;DHT22;13153;52.316;21.166;2023-06-26T05:17:19;37.40;57.60
25208;DHT22;13153;52.316;21.166;2023-06-26T05:19:46;37.80;56.40
25208;DHT22;13153;52.316;21.166;2023-06-26T05:22:12;37.90;56.50
25208;DHT22;13153;52.316;21.166;2023-06-26T05:24:39;38.00;55.10
25208;DHT22;13153;52.316;21.166;2023-06-26T05:27:06;38.20;55.00
25208;DHT22;13153;52.316;21.166;2023-06-26T05:29:33;38.30;54.80
25208;DHT22;13153;52.316;21.166;2023-06-26T05:31:59;38.60;54.30
25208;DHT22;13153;52.316;21.166;2023-06-26T05:34:26;39.10;53.80
25208;DHT22;13153;52.316;21.166;2023-06-26T05:37:00;39.60;53.10
25208;DHT22;13153;52.316;21.166;2023-06-26T05:39:27;39.80;52.30
25208;DHT22;13153;52.316;21.166;2023-06-26T05:41:53;39.90;51.40
25208;DHT22;13153;52.316;21.166;2023-06-26T05:44:19;40.10;51.60
25208;DHT22;13153;52.316;21.166;2023-06-26T05:46:45;40.00;51.40
25208;DHT22;13153;52.316;21.166;2023-06-26T05:49:11;40.10;50.50
25208;DHT22;13153;52.316;21.166;2023-06-26T05:51:37;40.60;50.30
25208;DHT22;13153;52.316;21.166;2023-06-26T05:54:03;40.70;49.40
25208;DHT22;13153;52.316;21.166;2023-06-26T05:56:30;40.90;48.10
25208;DHT22;13153;52.316;21.166;2023-06-26T05:58:56;41.00;48.00
25208;DHT22;13153;52.316;21.166;2023-06-26T06:01:23;41.00;48.00
25208;DHT22;13153;52.316;21.166;2023-06-26T06:03:50;41.20;48.10
25208;DHT22;13153;52.316;21.166;2023-06-26T06:06:15;41.50;48.30
25208;DHT22;13153;52.316;21.166;2023-06-26T06:08:42;42.00;47.70
25208;DHT22;13153;52.316;21.166;2023-06-26T06:11:08;42.00;46.90
25208;DHT22;13153;52.316;21.166;2023-06-26T06:13:34;42.30;46.90
25208;DHT22;13153;52.316;21.166;2023-06-26T06:16:00;42.50;45.20
25208;DHT22;13153;52.316;21.166;2023-06-26T06:18:25;42.80;45.40
25208;DHT22;13153;52.316;21.166;2023-06-26T06:20:51;43.10;45.40
25208;DHT22;13153;52.316;21.166;2023-06-26T06:23:18;43.30;44.80
25208;DHT22;13153;52.316;21.166;2023-06-26T06:25:43;43.30;43.60
25208;DHT22;13153;52.316;21.166;2023-06-26T06:28:09;43.10;44.40
25208;DHT22;13153;52.316;21.166;2023-06-26T06:30:35;43.20;44.60
25208;DHT22;13153;52.316;21.166;2023-06-26T06:33:01;43.20;44.10
25208;DHT22;13153;52.316;21.166;2023-06-26T06:35:27;43.30;43.50
25208;DHT22;13153;52.316;21.166;2023-06-26T06:37:53;43.40;43.50
25208;DHT22;13153;52.316;21.166;2023-06-26T06:40:19;43.70;44.10
25208;DHT22;13153;52.316;21.166;2023-06-26T06:42:47;43.90;42.50
25208;DHT22;13153;52.316;21.166;2023-06-26T06:45:13;44.30;43.40
25208;DHT22;13153;52.316;21.166;2023-06-26T06:47:38;44.80;42.20
25208;DHT22;13153;52.316;21.166;2023-06-26T06:50:04;44.80;41.90
25208;DHT22;13153;52.316;21.166;2023-06-26T06:52:37;44.70;41.30
25208;DHT22;13153;52.316;21.166;2023-06-26T06:55:06;44.60;41.20
25208;DHT22;13153;52.316;21.166;2023-06-26T06:57:38;44.60;42.10
25208;DHT22;13153;52.316;21.166;2023-06-26T07:00:06;44.80;41.00
25208;DHT22;13153;52.316;21.166;2023-06-26T07:02:35;44.60;40.10
25208;DHT22;13153;52.316;21.166;2023-06-26T07:05:03;44.70;39.70
25208;DHT22;13153;52.316;21.166;2023-06-26T07:07:31;44.40;39.80
25208;DHT22;13153;52.316;21.166;2023-06-26T07:10:03;44.20;40.40
25208;DHT22;13153;52.316;21.166;2023-06-26T07:12:31;44.30;40.30
25208;DHT22;13153;52.316;21.166;2023-06-26T07:14:57;44.30;39.10
25208;DHT22;13153;52.316;21.166;2023-06-26T07:17:23;44.20;40.00
25208;DHT22;13153;52.316;21.166;2023-06-26T07:19:50;44.10;40.10
25208;DHT22;13153;52.316;21.166;2023-06-26T07:22:15;44.10;40.20
25208;DHT22;13153;52.316;21.166;2023-06-26T07:24:41;44.20;38.80
25208;DHT22;13153;52.316;21.166;2023-06-26T07:27:07;44.00;38.60
25208;DHT22;13153;52.316;21.166;2023-06-26T07:29:33;43.50;38.50
25208;DHT22;13153;52.316;21.166;2023-06-26T07:31:59;43.20;39.20
25208;DHT22;13153;52.316;21.166;2023-06-26T07:34:24;42.90;39.70
25208;DHT22;13153;52.316;21.166;2023-06-26T07:36:50;42.80;40.10
25208;DHT22;13153;52.316;21.166;2023-06-26T07:39:16;42.60;40.20
25208;DHT22;13153;52.316;21.166;2023-06-26T07:41:42;42.10;39.60
25208;DHT22;13153;52.316;21.166;2023-06-26T07:44:07;41.70;40.00
25208;DHT22;13153;52.316;21.166;2023-06-26T07:46:33;41.50;40.30
25208;DHT22;13153;52.316;21.166;2023-06-26T07:48:59;41.20;41.40
25208;DHT22;13153;52.316;21.166;2023-06-26T07:51:25;40.50;41.50
25208;DHT22;13153;52.316;21.166;2023-06-26T07:53:50;39.80;42.70
25208;DHT22;13153;52.316;21.166;2023-06-26T07:56:16;39.20;44.10
25208;DHT22;13153;52.316;21.166;2023-06-26T07:58:42;38.60;43.80
25208;DHT22;13153;52.316;21.166;2023-06-26T08:01:08;37.90;44.50
25208;DHT22;13153;52.316;21.166;2023-06-26T08:03:34;37.40;44.50
25208;DHT22;13153;52.316;21.166;2023-06-26T08:06:00;36.80;45.40
25208;DHT22;13153;52.316;21.166;2023-06-26T08:08:25;36.30;47.30
25208;DHT22;13153;52.316;21.166;2023-06-26T08:10:51;35.60;48.40
25208;DHT22;13153;52.316;21.166;2023-06-26T08:13:17;34.90;48.80
25208;DHT22;13153;52.316;21.166;2023-06-26T08:15:43;34.10;51.30
25208;DHT22;13153;52.316;21.166;2023-06-26T08:18:08;33.50;54.10
25208;DHT22;13153;52.316;21.166;2023-06-26T08:20:34;32.90;51.50
25208;DHT22;13153;52.316;21.166;2023-06-26T08:23:03;32.40;54.00
25208;DHT22;13153;52.316;21.166;2023-06-26T08:25:29;32.00;53.70
25208;DHT22;13153;52.316;21.166;2023-06-26T08:27:55;31.60;54.30
25208;DHT22;13153;52.316;21.166;2023-06-26T08:30:21;31.30;53.90
25208;DHT22;13153;52.316;21.166;2023-06-26T08:32:47;31.00;55.90
25208;DHT22;13153;52.316;21.166;2023-06-26T08:35:13;30.80;57.40
25208;DHT22;13153;52.316;21.166;2023-06-26T08:37:39;30.50;58.20
25208;DHT22;13153;52.316;21.166;2023-06-26T08:40:06;30.40;59.10
25208;DHT22;13153;52.316;21.166;2023-06-26T08:42:33;30.30;58.70
25208;DHT22;13153;52.316;21.166;2023-06-26T08:44:59;30.30;59.00
25208;DHT22;13153;52.316;21.166;2023-06-26T08:47:25;30.20;58.90
25208;DHT22;13153;52.316;21.166;2023-06-26T08:52:47;30.30;56.40
25208;DHT22;13153;52.316;21.166;2023-06-26T08:55:27;30.50;55.80
25208;DHT22;13153;52.316;21.166;2023-06-26T08:57:54;30.70;56.40
25208;DHT22;13153;52.316;21.166;2023-06-26T09:00:20;30.90;55.90
25208;DHT22;13153;52.316;21.166;2023-06-26T09:02:46;31.00;55.00
25208;DHT22;13153;52.316;21.166;2023-06-26T09:05:12;31.00;53.80
25208;DHT22;13153;52.316;21.166;2023-06-26T09:07:38;30.90;53.70
25208;DHT22;13153;52.316;21.166;2023-06-26T09:10:04;30.70;55.20
25208;DHT22;13153;52.316;21.166;2023-06-26T09:12:31;30.40;55.70
25208;DHT22;13153;52.316;21.166;2023-06-26T09:14:57;30.20;55.30
25208;DHT22;13153;52.316;21.166;2023-06-26T09:17:30;30.00;54.70
25208;DHT22;13153;52.316;21.166;2023-06-26T09:20:04;29.80;55.30
25208;DHT22;13153;52.316;21.166;2023-06-26T09:22:36;29.50;56.50
25208;DHT22;13153;52.316;21.166;2023-06-26T09:25:05;29.30;57.70
25208;DHT22;13153;52.316;21.166;2023-06-26T09:27:31;29.30;58.40
25208;DHT22;13153;52.316;21.166;2023-06-26T09:29:57;29.40;56.20
25208;DHT22;13153;52.316;21.166;2023-06-26T09:32:24;29.60;54.50
25208;DHT22;13153;52.316;21.166;2023-06-26T09:34:53;29.70;54.60
25208;DHT22;13153;52.316;21.166;2023-06-26T09:37:21;29.80;53.70
25208;DHT22;13153;52.316;21.166;2023-06-26T09:39:48;29.80;53.80
25208;DHT22;13153;52.316;21.166;2023-06-26T09:42:16;29.80;54.60
25208;DHT22;13153;52.316;21.166;2023-06-26T09:44:45;29.80;56.40
25208;DHT22;13153;52.316;21.166;2023-06-26T09:47:13;29.60;56.50
25208;DHT22;13153;52.316;21.166;2023-06-26T09:49:42;29.50;57.30
25208;DHT22;13153;52.316;21.166;2023-06-26T09:52:09;29.30;57.20
25208;DHT22;13153;52.316;21.166;2023-06-26T09:54:36;29.20;58.50
25208;DHT22;13153;52.316;21.166;2023-06-26T09:57:09;29.00;58.70
25208;DHT22;13153;52.316;21.166;2023-06-26T09:59:36;29.00;59.40
25208;DHT22;13153;52.316;21.166;2023-06-26T10:02:02;29.00;59.60
25208;DHT22;13153;52.316;21.166;2023-06-26T10:04:29;29.00;60.00
25208;DHT22;13153;52.316;21.166;2023-06-26T10:06:56;29.00;59.10
25208;DHT22;13153;52.316;21.166;2023-06-26T10:09:23;29.20;57.90
25208;DHT22;13153;52.316;21.166;2023-06-26T10:14:34;29.40;54.70
25208;DHT22;13153;52.316;21.166;2023-06-26T10:17:13;29.50;55.10
25208;DHT22;13153;52.316;21.166;2023-06-26T10:19:43;29.50;52.20
25208;DHT22;13153;52.316;21.166;2023-06-26T10:22:12;29.50;52.30
25208;DHT22;13153;52.316;21.166;2023-06-26T10:24:43;29.50;54.80
25208;DHT22;13153;52.316;21.166;2023-06-26T10:27:23;29.40;54.40
25208;DHT22;13153;52.316;21.166;2023-06-26T10:30:00;29.20;54.00
25208;DHT22;13153;52.316;21.166;2023-06-26T10:32:28;29.10;54.10
25208;DHT22;13153;52.316;21.166;2023-06-26T10:34:55;28.90;56.70
25208;DHT22;13153;52.316;21.166;2023-06-26T10:37:44;28.90;57.20
25208;DHT22;13153;52.316;21.166;2023-06-26T10:40:12;29.00;57.90
25208;DHT22;13153;52.316;21.166;2023-06-26T10:42:40;29.10;57.10
25208;DHT22;13153;52.316;21.166;2023-06-26T10:45:36;29.20;56.90
25208;DHT22;13153;52.316;21.166;2023-06-26T10:48:02;29.40;56.10
25208;DHT22;13153;52.316;21.166;2023-06-26T10:50:31;29.50;56.10
25208;DHT22;13153;52.316;21.166;2023-06-26T10:56:05;29.50;55.80
25208;DHT22;13153;52.316;21.166;2023-06-26T11:03:40;29.30;54.20
25208;DHT22;13153;52.316;21.166;2023-06-26T11:06:16;29.30;55.80
25208;DHT22;13153;52.316;21.166;2023-06-26T11:11:14;29.40;56.10
25208;DHT22;13153;52.316;21.166;2023-06-26T11:13:41;29.50;54.40
25208;DHT22;13153;52.316;21.166;2023-06-26T11:16:07;29.50;53.90
25208;DHT22;13153;52.316;21.166;2023-06-26T11:18:33;29.50;55.90
25208;DHT22;13153;52.316;21.166;2023-06-26T11:21:10;29.50;55.70
25208;DHT22;13153;52.316;21.166;2023-06-26T11:23:39;29.40;52.00
25208;DHT22;13153;52.316;21.166;2023-06-26T11:26:19;29.40;53.10
25208;DHT22;13153;52.316;21.166;2023-06-26T11:28:56;29.20;54.10
25208;DHT22;13153;52.316;21.166;2023-06-26T11:31:32;29.00;53.80
25208;DHT22;13153;52.316;21.166;2023-06-26T11:34:01;28.90;54.20
25208;DHT22;13153;52.316;21.166;2023-06-26T11:36:29;28.80;55.50
25208;DHT22;13153;52.316;21.166;2023-06-26T11:38:57;28.80;57.90
25208;DHT22;13153;52.316;21.166;2023-06-26T11:41:26;28.90;57.10
25208;DHT22;13153;52.316;21.166;2023-06-26T11:43:53;29.00;53.20
25208;DHT22;13153;52.316;21.166;2023-06-26T11:46:21;29.00;52.70
25208;DHT22;13153;52.316;21.166;2023-06-26T11:48:48;29.00;53.50
25208;DHT22;13153;52.316;21.166;2023-06-26T11:51:15;29.00;50.90
25208;DHT22;13153;52.316;21.166;2023-06-26T11:53:42;29.00;51.60
25208;DHT22;13153;52.316;21.166;2023-06-26T11:56:17;29.00;51.30
25208;DHT22;13153;52.316;21.166;2023-06-26T11:59:05;29.00;52.70
25208;DHT22;13153;52.316;21.166;2023-06-26T12:04:05;29.10;53.40
25208;DHT22;13153;52.316;21.166;2023-06-26T12:06:36;29.10;54.70
25208;DHT22;13153;52.316;21.166;2023-06-26T12:09:07;29.10;54.90
25208;DHT22;13153;52.316;21.166;2023-06-26T12:11:35;29.00;54.30
25208;DHT22;13153;52.316;21.166;2023-06-26T12:14:07;29.00;53.70
25208;DHT22;13153;52.316;21.166;2023-06-26T12:16:35;28.90;54.70
25208;DHT22;13153;52.316;21.166;2023-06-26T12:19:03;28.90;54.10
25208;DHT22;13153;52.316;21.166;2023-06-26T12:21:44;28.90;53.20
25208;DHT22;13153;52.316;21.166;2023-06-26T12:24:17;29.00;53.00
25208;DHT22;13153;52.316;21.166;2023-06-26T12:26:45;29.00;54.50
25208;DHT22;13153;52.316;21.166;2023-06-26T12:29:15;29.10;55.00
25208;DHT22;13153;52.316;21.166;2023-06-26T12:31:51;29.20;53.70
25208;DHT22;13153;52.316;21.166;2023-06-26T12:34:20;29.20;54.10
25208;DHT22;13153;52.316;21.166;2023-06-26T12:36:50;29.20;54.10
25208;DHT22;13153;52.316;21.166;2023-06-26T12:39:18;29.20;54.00
25208;DHT22;13153;52.316;21.166;2023-06-26T12:41:57;29.10;52.10
25208;DHT22;13153;52.316;21.166;2023-06-26T12:44:27;28.90;53.20
25208;DHT22;13153;52.316;21.166;2023-06-26T12:46:57;28.70;54.60
25208;DHT22;13153;52.316;21.166;2023-06-26T12:49:37;28.60;54.90
25208;DHT22;13153;52.316;21.166;2023-06-26T12:52:07;28.50;56.80
25208;DHT22;13153;52.316;21.166;2023-06-26T12:54:34;28.40;57.40
25208;DHT22;13153;52.316;21.166;2023-06-26T12:57:01;28.30;58.40
25208;DHT22;13153;52.316;21.166;2023-06-26T12:59:26;28.30;58.10
25208;DHT22;13153;52.316;21.166;2023-06-26T13:01:52;28.20;56.50
25208;DHT22;13153;52.316;21.166;2023-06-26T13:04:18;28.20;57.50
25208;DHT22;13153;52.316;21.166;2023-06-26T13:06:44;28.10;58.40
25208;DHT22;13153;52.316;21.166;2023-06-26T13:09:10;28.00;57.40
25208;DHT22;13153;52.316;21.166;2023-06-26T13:11:37;28.00;55.80
25208;DHT22;13153;52.316;21.166;2023-06-26T13:14:03;28.00;55.00
25208;DHT22;13153;52.316;21.166;2023-06-26T13:16:29;28.00;56.30
25208;DHT22;13153;52.316;21.166;2023-06-26T13:18:55;28.00;54.90
25208;DHT22;13153;52.316;21.166;2023-06-26T13:21:23;28.10;54.70
25208;DHT22;13153;52.316;21.166;2023-06-26T13:23:49;28.20;55.00
25208;DHT22;13153;52.316;21.166;2023-06-26T13:26:15;28.20;53.90
25208;DHT22;13153;52.316;21.166;2023-06-26T13:28:40;28.20;54.40
25208;DHT22;13153;52.316;21.166;2023-06-26T13:31:06;28.20;54.30
25208;DHT22;13153;52.316;21.166;2023-06-26T13:33:32;28.20;54.20
25208;DHT22;13153;52.316;21.166;2023-06-26T13:35:58;28.20;52.80
25208;DHT22;13153;52.316;21.166;2023-06-26T13:38:24;28.20;53.80
25208;DHT22;13153;52.316;21.166;2023-06-26T13:40:52;28.10;53.00
25208;DHT22;13153;52.316;21.166;2023-06-26T13:43:19;28.10;54.30
25208;DHT22;13153;52.316;21.166;2023-06-26T13:45:46;28.10;53.10
25208;DHT22;13153;52.316;21.166;2023-06-26T13:48:12;28.10;54.60
25208;DHT22;13153;52.316;21.166;2023-06-26T13:50:38;28.10;55.90
25208;DHT22;13153;52.316;21.166;2023-06-26T13:53:04;28.10;54.10
25208;DHT22;13153;52.316;21.166;2023-06-26T13:55:31;28.10;54.50
25208;DHT22;13153;52.316;21.166;2023-06-26T13:57:58;28.20;54.50
25208;DHT22;13153;52.316;21.166;2023-06-26T14:00:25;28.30;55.00
25208;DHT22;13153;52.316;21.166;2023-06-26T14:02:51;28.40;54.60
25208;DHT22;13153;52.316;21.166;2023-06-26T14:05:17;28.40;53.20
25208;DHT22;13153;52.316;21.166;2023-06-26T14:07:44;28.40;53.60
25208;DHT22;13153;52.316;21.166;2023-06-26T14:10:10;28.50;52.90
25208;DHT22;13153;52.316;21.166;2023-06-26T14:12:36;28.40;52.60
25208;DHT22;13153;52.316;21.166;2023-06-26T14:15:02;28.50;52.50
25208;DHT22;13153;52.316;21.166;2023-06-26T14:17:28;28.50;53.50
25208;DHT22;13153;52.316;21.166;2023-06-26T14:19:55;28.50;53.80
25208;DHT22;13153;52.316;21.166;2023-06-26T14:22:20;28.60;52.80
25208;DHT22;13153;52.316;21.166;2023-06-26T14:24:48;28.60;53.00
25208;DHT22;13153;52.316;21.166;2023-06-26T14:27:14;28.60;52.90
25208;DHT22;13153;52.316;21.166;2023-06-26T14:29:40;28.60;51.60
25208;DHT22;13153;52.316;21.166;2023-06-26T14:32:06;28.50;53.20
25208;DHT22;13153;52.316;21.166;2023-06-26T14:34:32;28.40;52.20
25208;DHT22;13153;52.316;21.166;2023-06-26T14:36:59;28.40;51.90
25208;DHT22;13153;52.316;21.166;2023-06-26T14:39:24;28.40;51.80
25208;DHT22;13153;52.316;21.166;2023-06-26T14:41:50;28.40;51.40
25208;DHT22;13153;52.316;21.166;2023-06-26T14:44:16;28.50;51.30
25208;DHT22;13153;52.316;21.166;2023-06-26T14:46:42;28.50;51.60
25208;DHT22;13153;52.316;21.166;2023-06-26T14:49:09;28.50;51.60
25208;DHT22;13153;52.316;21.166;2023-06-26T14:51:34;28.50;50.00
25208;DHT22;13153;52.316;21.166;2023-06-26T14:54:00;28.50;50.60
25208;DHT22;13153;52.316;21.166;2023-06-26T14:56:27;28.50;51.50
25208;DHT22;13153;52.316;21.166;2023-06-26T14:58:52;28.40;52.30
25208;DHT22;13153;52.316;21.166;2023-06-26T15:01:19;28.40;52.00
25208;DHT22;13153;52.316;21.166;2023-06-26T15:03:48;28.40;52.40
25208;DHT22;13153;52.316;21.166;2023-06-26T15:06:14;28.40;52.60
25208;DHT22;13153;52.316;21.166;2023-06-26T15:08:40;28.40;52.40
25208;DHT22;13153;52.316;21.166;2023-06-26T15:11:06;28.30;51.90
25208;DHT22;13153;52.316;21.166;2023-06-26T15:13:32;28.30;52.20
25208;DHT22;13153;52.316;21.166;2023-06-26T15:15:58;28.20;52.50
25208;DHT22;13153;52.316;21.166;2023-06-26T15:18:23;28.20;52.10
25208;DHT22;13153;52.316;21.166;2023-06-26T15:20:49;28.20;52.40
25208;DHT22;13153;52.316;21.166;2023-06-26T15:23:15;28.10;53.10
25208;DHT22;13153;52.316;21.166;2023-06-26T15:25:41;28.10;53.90
25208;DHT22;13153;52.316;21.166;2023-06-26T15:28:07;28.00;53.90
25208;DHT22;13153;52.316;21.166;2023-06-26T15:30:33;28.00;55.60
25208;DHT22;13153;52.316;21.166;2023-06-26T15:32:59;28.00;54.70
25208;DHT22;13153;52.316;21.166;2023-06-26T15:35:25;28.00;54.10
25208;DHT22;13153;52.316;21.166;2023-06-26T15:37:52;28.00;54.10
25208;DHT22;13153;52.316;21.166;2023-06-26T15:40:18;28.00;52.50